Flugplatz Meinerzhagen (EDKZ)

Hier findest Du alle Informationen zum Flugplatz Meinerzhagen (EDKZ).

Informationen für Piloten zum Flugplatz Meinerzhagen

Hier findest Du alle relevanten Informationen, die Du als Pilot benötigst, um Meinerzhagen anzufliegen.

Flugplatz: Meinerzhagen ICAO-Code: EDKZ
Frequenz Turm: 130,600 Mhz GAFOR Gebiet: 35
Frequenz Ground: 130,600 Mhz Mogas: nein
Platzrunde: N 2400 ft Landegebühr: -
Platzhöhe: - Sunrise: 04:14 Uhr UTC
Pisten: 07/25 - 820 m x 20 m, ASPH Sunset: 18:53 Uhr UTC

Flugwetter am Flugplatz Meinerzhagen

Die METAR Information stammen aus EDDK (41.28 km entfernt).

METAR Code:
2022/08/11 12:20
EDDK 111220Z AUTO 07008KT 010V150 CAVOK 32/08 Q1021 NOSIG

Temperatur: 20,2 °C Niederschlag: - Wind: 3,3 kt (max.: 10,2 kt in Böen)
Temperatur (min.): 17,6 °C Luftdruck: 1005 hPa Windrichtung: 204 °
Temperatur (max.): 20,8 °C Luftfeuchtigkeit: 60 % Bewölkung: 8/8

Flugschulen am Flugplatz Meinerzhagen

Am Flugplatz Meinerzhagen gibt es eine Flugschule.

Flugluft.de Tragschrauber

Benachbarte Flugplätze und Flugschulen

Es gibt 21 weitere Flugplätze in einem Umkreis von 50 km um den Flugplatz Meinerzhagen.

Jetzt anmelden

Passwort vergessen

Umfrage Archiv

Sendet Ihr ADS-B und/oder FLARM?

Ja
83.4 %
Nein
16.6 %
Stimmen: 199 | Diskussion
Anzeige: Roland Aircraft
Statistik Alle Mitglieder

Aktuell sind 31 Besucher online.

Anzeige: ULPower Aero Engines Anzeige: Pocket FMS